sensor_id;sensor_type;location;lat;lon;timestamp;pressure;altitude;pressure_sealevel;temperature;humidity
13478;BME280;12598;62.382;17.344;2022-12-29T00:00:09;100424.66;;;14.26;16.38
13478;BME280;12598;62.382;17.344;2022-12-29T00:01:14;100405.28;;;14.15;16.12
13478;BME280;12598;62.382;17.344;2022-12-29T00:02:16;100423.84;;;14.26;16.17
13478;BME280;12598;62.382;17.344;2022-12-29T00:03:18;100404.19;;;14.17;16.27
13478;BME280;12598;62.382;17.344;2022-12-29T00:04:21;100420.44;;;14.24;16.30
13478;BME280;12598;62.382;17.344;2022-12-29T00:05:23;100413.97;;;14.17;16.28
13478;BME280;12598;62.382;17.344;2022-12-29T00:06:26;100412.59;;;14.22;16.55
13478;BME280;12598;62.382;17.344;2022-12-29T00:07:27;100410.91;;;14.21;16.07
13478;BME280;12598;62.382;17.344;2022-12-29T00:08:29;100414.56;;;14.20;16.33
13478;BME280;12598;62.382;17.344;2022-12-29T00:09:43;100407.28;;;14.22;16.18
13478;BME280;12598;62.382;17.344;2022-12-29T00:10:45;100393.34;;;14.09;16.39
13478;BME280;12598;62.382;17.344;2022-12-29T00:11:47;100409.34;;;14.19;16.22
13478;BME280;12598;62.382;17.344;2022-12-29T00:12:49;100399.47;;;14.10;16.23
13478;BME280;12598;62.382;17.344;2022-12-29T00:14:10;100415.78;;;14.16;16.19
13478;BME280;12598;62.382;17.344;2022-12-29T00:15:31;100421.56;;;14.21;16.06
13478;BME280;12598;62.382;17.344;2022-12-29T00:16:43;100424.47;;;14.18;16.19
13478;BME280;12598;62.382;17.344;2022-12-29T00:17:45;100422.09;;;14.15;16.18
13478;BME280;12598;62.382;17.344;2022-12-29T00:18:47;100430.88;;;14.16;16.38
13478;BME280;12598;62.382;17.344;2022-12-29T00:19:49;100432.09;;;14.12;16.51
13478;BME280;12598;62.382;17.344;2022-12-29T00:21:20;100425.56;;;14.16;16.30
13478;BME280;12598;62.382;17.344;2022-12-29T00:22:40;100427.97;;;14.19;16.35
13478;BME280;12598;62.382;17.344;2022-12-29T00:24:01;100429.91;;;14.17;16.38
13478;BME280;12598;62.382;17.344;2022-12-29T00:25:28;100434.41;;;14.16;15.98
13478;BME280;12598;62.382;17.344;2022-12-29T00:26:54;100442.59;;;14.13;16.34
13478;BME280;12598;62.382;17.344;2022-12-29T00:28:15;100443.97;;;14.08;16.12
13478;BME280;12598;62.382;17.344;2022-12-29T00:29:36;100462.19;;;14.12;16.07
13478;BME280;12598;62.382;17.344;2022-12-29T00:31:00;100458.94;;;14.09;15.87
13478;BME280;12598;62.382;17.344;2022-12-29T00:32:20;100451.94;;;14.08;16.03
13478;BME280;12598;62.382;17.344;2022-12-29T00:33:41;100453.06;;;14.05;15.87
13478;BME280;12598;62.382;17.344;2022-12-29T00:35:01;100448.56;;;14.06;15.91
13478;BME280;12598;62.382;17.344;2022-12-29T00:36:20;100446.28;;;14.01;16.36
13478;BME280;12598;62.382;17.344;2022-12-29T00:37:23;100455.22;;;14.00;16.45
13478;BME280;12598;62.382;17.344;2022-12-29T00:39:04;100444.47;;;14.02;16.20
13478;BME280;12598;62.382;17.344;2022-12-29T00:40:27;100443.38;;;14.04;16.02
13478;BME280;12598;62.382;17.344;2022-12-29T00:41:48;100437.84;;;13.96;16.34
13478;BME280;12598;62.382;17.344;2022-12-29T00:43:08;100450.88;;;13.99;15.98
13478;BME280;12598;62.382;17.344;2022-12-29T00:44:28;100452.81;;;13.97;16.29
13478;BME280;12598;62.382;17.344;2022-12-29T00:45:30;100456.00;;;13.91;16.34
13478;BME280;12598;62.382;17.344;2022-12-29T00:46:33;100452.78;;;13.88;16.65
13478;BME280;12598;62.382;17.344;2022-12-29T00:47:35;100454.72;;;13.86;16.26
13478;BME280;12598;62.382;17.344;2022-12-29T00:48:37;100457.50;;;13.84;16.32
13478;BME280;12598;62.382;17.344;2022-12-29T00:49:58;100451.91;;;13.87;16.26
13478;BME280;12598;62.382;17.344;2022-12-29T00:51:01;100442.06;;;13.78;16.47
13478;BME280;12598;62.382;17.344;2022-12-29T00:52:08;100458.47;;;13.83;16.76
13478;BME280;12598;62.382;17.344;2022-12-29T00:53:11;100458.47;;;13.83;16.58
13478;BME280;12598;62.382;17.344;2022-12-29T00:54:16;100434.59;;;13.72;16.46
13478;BME280;12598;62.382;17.344;2022-12-29T00:55:18;100449.78;;;13.81;16.78
13478;BME280;12598;62.382;17.344;2022-12-29T00:56:20;100445.44;;;13.80;16.05
13478;BME280;12598;62.382;17.344;2022-12-29T00:57:22;100432.53;;;13.76;16.54
13478;BME280;12598;62.382;17.344;2022-12-29T00:58:27;100423.25;;;13.70;16.29
13478;BME280;12598;62.382;17.344;2022-12-29T00:59:29;100436.59;;;13.80;16.90
13478;BME280;12598;62.382;17.344;2022-12-29T01:00:31;100450.03;;;13.78;16.67
13478;BME280;12598;62.382;17.344;2022-12-29T01:01:34;100445.09;;;13.74;16.75
13478;BME280;12598;62.382;17.344;2022-12-29T01:02:37;100452.69;;;13.78;17.02
13478;BME280;12598;62.382;17.344;2022-12-29T01:03:39;100447.50;;;13.77;16.83
13478;BME280;12598;62.382;17.344;2022-12-29T01:04:41;100454.63;;;13.76;16.25
13478;BME280;12598;62.382;17.344;2022-12-29T01:05:42;100433.19;;;13.68;16.67
13478;BME280;12598;62.382;17.344;2022-12-29T01:06:46;100441.34;;;13.76;16.77
13478;BME280;12598;62.382;17.344;2022-12-29T01:07:49;100440.50;;;13.76;16.52
13478;BME280;12598;62.382;17.344;2022-12-29T01:08:52;100433.50;;;13.75;16.20
13478;BME280;12598;62.382;17.344;2022-12-29T01:10:12;100422.75;;;13.76;16.23
13478;BME280;12598;62.382;17.344;2022-12-29T01:11:16;100426.50;;;13.74;16.59
13478;BME280;12598;62.382;17.344;2022-12-29T01:12:18;100440.50;;;13.76;16.50
13478;BME280;12598;62.382;17.344;2022-12-29T01:13:41;100438.56;;;13.78;16.51
13478;BME280;12598;62.382;17.344;2022-12-29T01:14:45;100438.44;;;13.79;16.36
13478;BME280;12598;62.382;17.344;2022-12-29T01:15:50;100427.59;;;13.71;16.33
13478;BME280;12598;62.382;17.344;2022-12-29T01:16:53;100404.38;;;13.53;16.60
13478;BME280;12598;62.382;17.344;2022-12-29T01:17:56;100426.50;;;13.74;16.49
13478;BME280;12598;62.382;17.344;2022-12-29T01:18:58;100431.94;;;13.72;16.69
13478;BME280;12598;62.382;17.344;2022-12-29T01:20:02;100428.44;;;13.72;16.29
13478;BME280;12598;62.382;17.344;2022-12-29T01:21:06;100421.59;;;13.69;16.57
13478;BME280;12598;62.382;17.344;2022-12-29T01:22:07;100431.25;;;13.70;16.74
13478;BME280;12598;62.382;17.344;2022-12-29T01:23:09;100430.38;;;13.70;16.60
13478;BME280;12598;62.382;17.344;2022-12-29T01:24:11;100414.34;;;13.60;16.76
13478;BME280;12598;62.382;17.344;2022-12-29T01:25:13;100437.63;;;13.68;16.73
13478;BME280;12598;62.382;17.344;2022-12-29T01:26:16;100427.97;;;13.67;16.58
13478;BME280;12598;62.382;17.344;2022-12-29T01:27:18;100426.19;;;13.67;16.30
13478;BME280;12598;62.382;17.344;2022-12-29T01:28:20;100393.56;;;13.45;16.19
13478;BME280;12598;62.382;17.344;2022-12-29T01:29:26;100422.66;;;13.67;16.62
13478;BME280;12598;62.382;17.344;2022-12-29T01:30:28;100424.59;;;13.65;16.42
13478;BME280;12598;62.382;17.344;2022-12-29T01:31:30;100421.94;;;13.65;16.41
13478;BME280;12598;62.382;17.344;2022-12-29T01:32:32;100398.63;;;13.48;16.35
13478;BME280;12598;62.382;17.344;2022-12-29T01:33:35;100424.75;;;13.63;16.76
13478;BME280;12598;62.382;17.344;2022-12-29T01:34:37;100422.09;;;13.63;16.23
13478;BME280;12598;62.382;17.344;2022-12-29T01:35:39;100419.91;;;13.57;16.38
13478;BME280;12598;62.382;17.344;2022-12-29T01:36:41;100425.72;;;13.62;16.75
13478;BME280;12598;62.382;17.344;2022-12-29T01:37:43;100425.84;;;13.61;16.67
13478;BME280;12598;62.382;17.344;2022-12-29T01:38:45;100421.50;;;13.60;16.61
13478;BME280;12598;62.382;17.344;2022-12-29T01:39:47;100414.88;;;13.54;16.27
13478;BME280;12598;62.382;17.344;2022-12-29T01:40:49;100416.19;;;13.60;16.40
13478;BME280;12598;62.382;17.344;2022-12-29T01:41:51;100423.28;;;13.59;16.59
13478;BME280;12598;62.382;17.344;2022-12-29T01:42:53;100417.16;;;13.59;16.40
13478;BME280;12598;62.382;17.344;2022-12-29T01:43:57;100420.78;;;13.58;16.22
13478;BME280;12598;62.382;17.344;2022-12-29T01:45:15;100392.91;;;13.52;16.47
13478;BME280;12598;62.382;17.344;2022-12-29T01:46:38;100411.59;;;13.62;16.22
13478;BME280;12598;62.382;17.344;2022-12-29T01:47:47;100406.88;;;13.65;16.57
13478;BME280;12598;62.382;17.344;2022-12-29T01:49:18;100407.13;;;13.62;16.01
13478;BME280;12598;62.382;17.344;2022-12-29T01:50:39;100404.78;;;13.69;16.15
13478;BME280;12598;62.382;17.344;2022-12-29T01:51:48;100400.34;;;13.58;16.56
13478;BME280;12598;62.382;17.344;2022-12-29T01:52:56;100412.44;;;13.62;15.95
13478;BME280;12598;62.382;17.344;2022-12-29T01:54:01;100415.22;;;13.61;16.55
13478;BME280;12598;62.382;17.344;2022-12-29T01:55:04;100405.66;;;13.58;16.66
13478;BME280;12598;62.382;17.344;2022-12-29T01:56:10;100402.31;;;13.56;16.65
13478;BME280;12598;62.382;17.344;2022-12-29T01:57:21;100400.50;;;13.57;16.77
13478;BME280;12598;62.382;17.344;2022-12-29T01:58:29;100407.63;;;13.56;16.11
13478;BME280;12598;62.382;17.344;2022-12-29T01:59:37;100400.63;;;13.55;16.29
13478;BME280;12598;62.382;17.344;2022-12-29T02:00:41;100394.47;;;13.55;15.96
13478;BME280;12598;62.382;17.344;2022-12-29T02:01:43;100387.41;;;13.44;16.65
13478;BME280;12598;62.382;17.344;2022-12-29T02:02:49;100403.69;;;13.51;16.81
13478;BME280;12598;62.382;17.344;2022-12-29T02:03:52;100398.22;;;13.52;16.57
13478;BME280;12598;62.382;17.344;2022-12-29T02:04:55;100392.19;;;13.50;16.50
13478;BME280;12598;62.382;17.344;2022-12-29T02:06:16;100390.25;;;13.52;16.39
13478;BME280;12598;62.382;17.344;2022-12-29T02:07:22;100384.94;;;13.52;16.96
13478;BME280;12598;62.382;17.344;2022-12-29T02:08:28;100377.94;;;13.51;16.64
13478;BME280;12598;62.382;17.344;2022-12-29T02:09:31;100377.13;;;13.51;16.88
13478;BME280;12598;62.382;17.344;2022-12-29T02:10:34;100372.88;;;13.48;16.69
13478;BME280;12598;62.382;17.344;2022-12-29T02:11:38;100367.56;;;13.48;16.23
13478;BME280;12598;62.382;17.344;2022-12-29T02:12:40;100364.22;;;13.46;16.55
13478;BME280;12598;62.382;17.344;2022-12-29T02:13:42;100372.16;;;13.46;16.63
13478;BME280;12598;62.382;17.344;2022-12-29T02:14:44;100371.34;;;13.46;16.60
13478;BME280;12598;62.382;17.344;2022-12-29T02:17:05;100370.38;;;13.47;16.97
13478;BME280;12598;62.382;17.344;2022-12-29T02:18:28;100362.25;;;13.48;16.77
13478;BME280;12598;62.382;17.344;2022-12-29T02:21:09;100367.22;;;13.53;16.40
13478;BME280;12598;62.382;17.344;2022-12-29T02:22:34;100365.97;;;13.57;16.80
13478;BME280;12598;62.382;17.344;2022-12-29T02:23:52;100357.28;;;13.55;16.35
13478;BME280;12598;62.382;17.344;2022-12-29T02:29:01;100355.09;;;13.60;16.71
13478;BME280;12598;62.382;17.344;2022-12-29T02:31:36;100344.66;;;13.47;16.73
13478;BME280;12598;62.382;17.344;2022-12-29T02:33:39;100347.75;;;13.52;16.97
13478;BME280;12598;62.382;17.344;2022-12-29T02:40:51;100333.81;;;13.39;17.02
13478;BME280;12598;62.382;17.344;2022-12-29T02:43:34;100329.38;;;13.40;17.14
13478;BME280;12598;62.382;17.344;2022-12-29T02:45:54;100338.06;;;13.42;17.27
13478;BME280;12598;62.382;17.344;2022-12-29T02:47:29;100338.63;;;13.45;16.76
13478;BME280;12598;62.382;17.344;2022-12-29T02:48:43;100339.47;;;13.46;17.03
13478;BME280;12598;62.382;17.344;2022-12-29T02:51:12;100323.66;;;13.44;17.00
13478;BME280;12598;62.382;17.344;2022-12-29T02:52:21;100293.00;;;13.20;17.02
13478;BME280;12598;62.382;17.344;2022-12-29T02:53:26;100316.31;;;13.37;17.16
13478;BME280;12598;62.382;17.344;2022-12-29T02:54:49;100321.97;;;13.43;16.86
13478;BME280;12598;62.382;17.344;2022-12-29T02:55:51;100325.16;;;13.37;17.41
13478;BME280;12598;62.382;17.344;2022-12-29T02:56:53;100327.22;;;13.34;17.39
13478;BME280;12598;62.382;17.344;2022-12-29T02:58:18;100336.50;;;13.39;17.73
13478;BME280;12598;62.382;17.344;2022-12-29T02:59:21;100337.34;;;13.40;17.43
13478;BME280;12598;62.382;17.344;2022-12-29T03:00:24;100335.78;;;13.37;17.20
13478;BME280;12598;62.382;17.344;2022-12-29T03:03:17;100325.50;;;13.44;17.57
13478;BME280;12598;62.382;17.344;2022-12-29T03:04:50;100318.25;;;13.46;16.83
13478;BME280;12598;62.382;17.344;2022-12-29T03:08:49;100317.53;;;13.44;17.41
13478;BME280;12598;62.382;17.344;2022-12-29T03:11:49;100316.41;;;13.46;17.36
13478;BME280;12598;62.382;17.344;2022-12-29T03:13:25;100320.75;;;13.47;17.51
13478;BME280;12598;62.382;17.344;2022-12-29T03:16:44;100311.81;;;13.48;17.54
13478;BME280;12598;62.382;17.344;2022-12-29T03:18:01;100317.25;;;13.47;17.46
13478;BME280;12598;62.382;17.344;2022-12-29T03:19:23;100295.94;;;13.37;17.23
13478;BME280;12598;62.382;17.344;2022-12-29T03:20:36;100314.16;;;13.42;17.33
13478;BME280;12598;62.382;17.344;2022-12-29T03:21:52;100307.16;;;13.41;17.25
13478;BME280;12598;62.382;17.344;2022-12-29T03:23:18;100301.59;;;13.44;16.99
13478;BME280;12598;62.382;17.344;2022-12-29T03:24:26;100295.69;;;13.40;17.34
13478;BME280;12598;62.382;17.344;2022-12-29T03:25:33;100302.09;;;13.38;17.04
13478;BME280;12598;62.382;17.344;2022-12-29T03:26:37;100311.00;;;13.37;17.39
13478;BME280;12598;62.382;17.344;2022-12-29T03:27:45;100300.53;;;13.35;17.69
13478;BME280;12598;62.382;17.344;2022-12-29T03:28:51;100282.03;;;13.25;17.32
13478;BME280;12598;62.382;17.344;2022-12-29T03:30:01;100291.16;;;13.31;17.40
13478;BME280;12598;62.382;17.344;2022-12-29T03:31:06;100304.88;;;13.36;17.11
13478;BME280;12598;62.382;17.344;2022-12-29T03:32:11;100285.13;;;13.29;17.25
13478;BME280;12598;62.382;17.344;2022-12-29T03:33:18;100295.22;;;13.35;17.41
13478;BME280;12598;62.382;17.344;2022-12-29T03:34:24;100290.75;;;13.36;17.67
13478;BME280;12598;62.382;17.344;2022-12-29T03:35:29;100270.19;;;13.28;17.42
13478;BME280;12598;62.382;17.344;2022-12-29T03:36:39;100276.06;;;13.32;17.30
13478;BME280;12598;62.382;17.344;2022-12-29T03:37:57;100268.41;;;13.38;17.40
13478;BME280;12598;62.382;17.344;2022-12-29T03:39:11;100274.31;;;13.42;17.30
13478;BME280;12598;62.382;17.344;2022-12-29T03:40:14;100272.66;;;13.41;17.59
13478;BME280;12598;62.382;17.344;2022-12-29T03:41:20;100268.53;;;13.37;17.44
13478;BME280;12598;62.382;17.344;2022-12-29T03:42:27;100266.59;;;13.39;17.26
13478;BME280;12598;62.382;17.344;2022-12-29T03:43:32;100277.09;;;13.40;17.16
13478;BME280;12598;62.382;17.344;2022-12-29T03:44:38;100268.41;;;13.38;17.13
13478;BME280;12598;62.382;17.344;2022-12-29T03:45:42;100268.41;;;13.38;17.30
13478;BME280;12598;62.382;17.344;2022-12-29T03:46:44;100260.56;;;13.37;17.37
13478;BME280;12598;62.382;17.344;2022-12-29T03:47:46;100269.41;;;13.37;17.06
13478;BME280;12598;62.382;17.344;2022-12-29T03:48:50;100271.06;;;13.38;17.06
13478;BME280;12598;62.382;17.344;2022-12-29T03:49:52;100219.47;;;13.11;17.79
13478;BME280;12598;62.382;17.344;2022-12-29T03:50:55;100255.16;;;13.38;17.42
13478;BME280;12598;62.382;17.344;2022-12-29T03:51:57;100257.91;;;13.37;17.24
13478;BME280;12598;62.382;17.344;2022-12-29T03:53:00;100257.91;;;13.37;17.49
13478;BME280;12598;62.382;17.344;2022-12-29T03:54:02;100250.63;;;13.29;17.66
13478;BME280;12598;62.382;17.344;2022-12-29T03:55:04;100250.91;;;13.36;17.22
13478;BME280;12598;62.382;17.344;2022-12-29T03:56:06;100251.78;;;13.36;17.44
13478;BME280;12598;62.382;17.344;2022-12-29T03:57:10;100242.97;;;13.36;17.21
13478;BME280;12598;62.382;17.344;2022-12-29T03:58:31;100232.47;;;13.34;17.21
13478;BME280;12598;62.382;17.344;2022-12-29T03:59:44;100230.00;;;13.42;17.76
13478;BME280;12598;62.382;17.344;2022-12-29T04:00:46;100237.28;;;13.40;17.57
13478;BME280;12598;62.382;17.344;2022-12-29T04:01:48;100235.59;;;13.39;17.70
13478;BME280;12598;62.382;17.344;2022-12-29T04:02:50;100226.75;;;13.39;17.20
13478;BME280;12598;62.382;17.344;2022-12-29T04:03:55;100222.44;;;13.38;17.45
13478;BME280;12598;62.382;17.344;2022-12-29T04:04:57;100217.00;;;13.39;17.39
13478;BME280;12598;62.382;17.344;2022-12-29T04:05:59;100214.63;;;13.36;17.18
13478;BME280;12598;62.382;17.344;2022-12-29T04:07:03;100195.84;;;13.28;17.55
13478;BME280;12598;62.382;17.344;2022-12-29T04:08:05;100212.94;;;13.35;17.32
13478;BME280;12598;62.382;17.344;2022-12-29T04:09:07;100217.13;;;13.38;17.16
13478;BME280;12598;62.382;17.344;2022-12-29T04:10:15;100217.84;;;13.40;17.75
13478;BME280;12598;62.382;17.344;2022-12-29T04:11:19;100214.72;;;13.35;17.39
13478;BME280;12598;62.382;17.344;2022-12-29T04:12:21;100221.34;;;13.40;17.87
13478;BME280;12598;62.382;17.344;2022-12-29T04:13:23;100205.34;;;13.31;17.54
13478;BME280;12598;62.382;17.344;2022-12-29T04:14:26;100221.44;;;13.39;17.59
13478;BME280;12598;62.382;17.344;2022-12-29T04:15:28;100206.19;;;13.31;17.65
13478;BME280;12598;62.382;17.344;2022-12-29T04:16:31;100213.38;;;13.40;17.12
13478;BME280;12598;62.382;17.344;2022-12-29T04:17:33;100206.06;;;13.33;17.53
13478;BME280;12598;62.382;17.344;2022-12-29T04:18:36;100208.19;;;13.39;17.30
13478;BME280;12598;62.382;17.344;2022-12-29T04:19:37;100215.19;;;13.40;17.79
13478;BME280;12598;62.382;17.344;2022-12-29T04:20:39;100215.31;;;13.38;17.79
13478;BME280;12598;62.382;17.344;2022-12-29T04:22:00;100206.81;;;13.44;17.47
13478;BME280;12598;62.382;17.344;2022-12-29T04:23:03;100192.41;;;13.37;17.49
13478;BME280;12598;62.382;17.344;2022-12-29T04:24:07;100191.16;;;13.41;17.18
13478;BME280;12598;62.382;17.344;2022-12-29T04:25:14;100150.53;;;13.21;17.85
13478;BME280;12598;62.382;17.344;2022-12-29T04:26:16;100180.09;;;13.36;17.63
13478;BME280;12598;62.382;17.344;2022-12-29T04:27:28;100174.63;;;13.38;17.55
13478;BME280;12598;62.382;17.344;2022-12-29T04:28:56;100190.50;;;13.49;17.42
13478;BME280;12598;62.382;17.344;2022-12-29T04:30:33;100192.03;;;13.51;17.25
13478;BME280;12598;62.382;17.344;2022-12-29T04:31:43;100181.13;;;13.45;17.40
13478;BME280;12598;62.382;17.344;2022-12-29T04:32:45;100184.16;;;13.40;17.67
13478;BME280;12598;62.382;17.344;2022-12-29T04:33:47;100189.22;;;13.43;17.42
13478;BME280;12598;62.382;17.344;2022-12-29T04:34:49;100193.09;;;13.39;17.34
13478;BME280;12598;62.382;17.344;2022-12-29T04:35:52;100185.03;;;13.41;17.26
13478;BME280;12598;62.382;17.344;2022-12-29T04:36:57;100192.00;;;13.42;17.80
13478;BME280;12598;62.382;17.344;2022-12-29T04:37:59;100185.03;;;13.41;17.42
13478;BME280;12598;62.382;17.344;2022-12-29T04:39:02;100180.69;;;13.40;17.28
13478;BME280;12598;62.382;17.344;2022-12-29T04:40:08;100188.66;;;13.40;17.58
13478;BME280;12598;62.382;17.344;2022-12-29T04:41:10;100186.00;;;13.40;17.79
13478;BME280;12598;62.382;17.344;2022-12-29T04:42:13;100181.78;;;13.37;17.45
13478;BME280;12598;62.382;17.344;2022-12-29T04:43:17;100180.53;;;13.41;17.22
13478;BME280;12598;62.382;17.344;2022-12-29T04:44:46;100178.22;;;13.48;17.06
13478;BME280;12598;62.382;17.344;2022-12-29T04:45:56;100177.34;;;13.47;17.27
13478;BME280;12598;62.382;17.344;2022-12-29T04:47:07;100171.22;;;13.47;17.06
13478;BME280;12598;62.382;17.344;2022-12-29T04:48:27;100169.38;;;13.47;17.68
13478;BME280;12598;62.382;17.344;2022-12-29T04:49:42;100162.13;;;13.49;17.16
13478;BME280;12598;62.382;17.344;2022-12-29T04:51:02;100160.00;;;13.43;17.18
13478;BME280;12598;62.382;17.344;2022-12-29T04:52:10;100160.59;;;13.47;17.49
13478;BME280;12598;62.382;17.344;2022-12-29T04:53:13;100149.22;;;13.35;17.39
13478;BME280;12598;62.382;17.344;2022-12-29T04:54:16;100166.28;;;13.42;17.78
13478;BME280;12598;62.382;17.344;2022-12-29T04:55:24;100155.66;;;13.42;17.55
13478;BME280;12598;62.382;17.344;2022-12-29T04:56:25;100141.50;;;13.32;17.48
13478;BME280;12598;62.382;17.344;2022-12-29T04:57:27;100143.63;;;13.38;18.00
13478;BME280;12598;62.382;17.344;2022-12-29T04:58:32;100138.31;;;13.38;17.81
13478;BME280;12598;62.382;17.344;2022-12-29T04:59:34;100143.03;;;13.35;17.79
13478;BME280;12598;62.382;17.344;2022-12-29T05:00:36;100142.94;;;13.36;17.96
13478;BME280;12598;62.382;17.344;2022-12-29T05:01:38;100143.03;;;13.35;17.62
13478;BME280;12598;62.382;17.344;2022-12-29T05:02:41;100140.38;;;13.35;17.54
13478;BME280;12598;62.382;17.344;2022-12-29T05:03:43;100142.22;;;13.34;17.28
13478;BME280;12598;62.382;17.344;2022-12-29T05:04:45;100118.16;;;13.27;17.40
13478;BME280;12598;62.382;17.344;2022-12-29T05:05:47;100130.88;;;13.32;17.63
13478;BME280;12598;62.382;17.344;2022-12-29T05:06:49;100134.38;;;13.33;17.39
13478;BME280;12598;62.382;17.344;2022-12-29T05:07:52;100122.94;;;13.32;17.63
13478;BME280;12598;62.382;17.344;2022-12-29T05:08:53;100138.97;;;13.31;18.15
13478;BME280;12598;62.382;17.344;2022-12-29T05:09:55;100130.72;;;13.25;17.83
13478;BME280;12598;62.382;17.344;2022-12-29T05:10:57;100132.84;;;13.30;17.57
13478;BME280;12598;62.382;17.344;2022-12-29T05:12:00;100130.31;;;13.29;17.33
13478;BME280;12598;62.382;17.344;2022-12-29T05:13:03;100131.16;;;13.29;17.35
13478;BME280;12598;62.382;17.344;2022-12-29T05:14:05;100117.03;;;13.29;17.56
13478;BME280;12598;62.382;17.344;2022-12-29T05:15:10;100130.44;;;13.27;18.04
13478;BME280;12598;62.382;17.344;2022-12-29T05:16:13;100120.66;;;13.28;17.96
13478;BME280;12598;62.382;17.344;2022-12-29T05:17:15;100118.41;;;13.24;17.71
13478;BME280;12598;62.382;17.344;2022-12-29T05:18:18;100125.13;;;13.27;18.15
13478;BME280;12598;62.382;17.344;2022-12-29T05:19:20;100109.03;;;13.20;17.76
13478;BME280;12598;62.382;17.344;2022-12-29T05:20:22;100121.78;;;13.26;17.41
13478;BME280;12598;62.382;17.344;2022-12-29T05:21:24;100123.56;;;13.25;18.03
13478;BME280;12598;62.382;17.344;2022-12-29T05:22:26;100120.09;;;13.25;17.74
13478;BME280;12598;62.382;17.344;2022-12-29T05:23:30;100114.78;;;13.25;17.69
13478;BME280;12598;62.382;17.344;2022-12-29T05:24:39;100118.16;;;13.27;17.65
13478;BME280;12598;62.382;17.344;2022-12-29T05:25:41;100117.44;;;13.25;17.79
13478;BME280;12598;62.382;17.344;2022-12-29T05:26:55;100121.50;;;13.28;17.31
13478;BME280;12598;62.382;17.344;2022-12-29T05:28:17;100123.91;;;13.31;17.39
13478;BME280;12598;62.382;17.344;2022-12-29T05:29:24;100107.91;;;13.22;17.50
13478;BME280;12598;62.382;17.344;2022-12-29T05:30:27;100107.53;;;13.27;17.49
13478;BME280;12598;62.382;17.344;2022-12-29T05:31:28;100094.22;;;13.17;17.76
13478;BME280;12598;62.382;17.344;2022-12-29T05:32:31;100105.16;;;13.24;17.92
13478;BME280;12598;62.382;17.344;2022-12-29T05:33:33;100101.63;;;13.23;17.75
13478;BME280;12598;62.382;17.344;2022-12-29T05:34:37;100099.84;;;13.24;17.54
13478;BME280;12598;62.382;17.344;2022-12-29T05:35:39;100100.81;;;13.23;17.81
13478;BME280;12598;62.382;17.344;2022-12-29T05:36:41;100103.47;;;13.23;17.44
13478;BME280;12598;62.382;17.344;2022-12-29T05:37:44;100099.97;;;13.22;17.67
13478;BME280;12598;62.382;17.344;2022-12-29T05:38:46;100093.81;;;13.22;18.31
13478;BME280;12598;62.382;17.344;2022-12-29T05:39:48;100095.78;;;13.20;18.00
13478;BME280;12598;62.382;17.344;2022-12-29T05:40:50;100090.31;;;13.21;18.34
13478;BME280;12598;62.382;17.344;2022-12-29T05:42:24;100082.50;;;13.29;17.88
13478;BME280;12598;62.382;17.344;2022-12-29T05:43:46;100074.44;;;13.30;17.53
13478;BME280;12598;62.382;17.344;2022-12-29T05:45:07;100080.56;;;13.31;17.77
13478;BME280;12598;62.382;17.344;2022-12-29T05:46:21;100065.19;;;13.25;17.88
13478;BME280;12598;62.382;17.344;2022-12-29T05:47:58;100075.56;;;13.37;17.58
13478;BME280;12598;62.382;17.344;2022-12-29T05:49:09;100078.34;;;13.36;17.74
13478;BME280;12598;62.382;17.344;2022-12-29T05:50:26;100074.88;;;13.35;18.17
13478;BME280;12598;62.382;17.344;2022-12-29T05:51:42;100078.22;;;13.37;17.66
13478;BME280;12598;62.382;17.344;2022-12-29T05:52:44;100068.00;;;13.33;17.96
13478;BME280;12598;62.382;17.344;2022-12-29T05:53:46;100064.53;;;13.32;18.01
13478;BME280;12598;62.382;17.344;2022-12-29T05:54:49;100072.50;;;13.32;17.67
13478;BME280;12598;62.382;17.344;2022-12-29T05:55:54;100060.03;;;13.33;17.92
13478;BME280;12598;62.382;17.344;2022-12-29T05:56:56;100061.88;;;13.32;18.22
13478;BME280;12598;62.382;17.344;2022-12-29T05:57:58;100061.88;;;13.32;18.36
13478;BME280;12598;62.382;17.344;2022-12-29T05:59:02;100042.16;;;13.26;17.92
13478;BME280;12598;62.382;17.344;2022-12-29T06:00:05;100052.94;;;13.33;18.26
13478;BME280;12598;62.382;17.344;2022-12-29T06:01:14;100055.31;;;13.36;18.10
13478;BME280;12598;62.382;17.344;2022-12-29T06:02:18;100048.06;;;13.38;18.13
13478;BME280;12598;62.382;17.344;2022-12-29T06:03:21;100045.78;;;13.34;17.96
13478;BME280;12598;62.382;17.344;2022-12-29T06:04:25;100039.78;;;13.32;17.62
13478;BME280;12598;62.382;17.344;2022-12-29T06:05:27;100047.06;;;13.39;18.42
13478;BME280;12598;62.382;17.344;2022-12-29T06:06:29;100039.00;;;13.41;17.97
13478;BME280;12598;62.382;17.344;2022-12-29T06:07:32;100040.66;;;13.42;17.97
13478;BME280;12598;62.382;17.344;2022-12-29T06:08:34;100028.50;;;13.39;17.95
13478;BME280;12598;62.382;17.344;2022-12-29T06:09:35;100034.94;;;13.46;17.80
13478;BME280;12598;62.382;17.344;2022-12-29T06:10:38;100031.31;;;13.47;18.10
13478;BME280;12598;62.382;17.344;2022-12-29T06:11:42;100027.53;;;13.50;18.00
13478;BME280;12598;62.382;17.344;2022-12-29T06:12:44;100020.84;;;13.46;17.67
13478;BME280;12598;62.382;17.344;2022-12-29T06:13:46;100018.72;;;13.49;18.00
13478;BME280;12598;62.382;17.344;2022-12-29T06:14:50;100020.72;;;13.57;17.68
13478;BME280;12598;62.382;17.344;2022-12-29T06:15:52;100025.75;;;13.60;18.00